Alice International Airport
KALI : now visible

Airfield :











YOU CAN JOIN US ON...

 
LOGIN :

Register | Disclaimer

   EN    FR    IT 

 









Legend :    VFR   Marginal VFR   IFR   Intensive IFR   Very Intensive IFR
Visi :
Ceiling :
>= 8 km
>= 3000ft
5 to 8 km
1000 to 3000 ft
1500m to 5 km
500 to 1000 ft
800 to 1500m
200 to 500 ft
< 800m
< 200 ft
Symbols :   Thunderstorms  Fog  Heavy snow  Heavy precipitations  Wind > 20 kt






- Airport Elevation : 178 ft


KALI - Alice International

CURRENT METAR :
  • 080353Z AUTO 14007KT 8SM CLR 24/22 A2992 RMK AO2 SLP130 T02390222

EXPIRED METARs :
  • 080253Z AUTO 13006KT 9SM CLR 24/22 A2991 RMK AO2 SLP126 T02440222 53015
  • 080153Z AUTO 12006KT 8SM CLR 26/22 A2989 RMK AO2 SLP120 T02560222

TAF KALI
Valid from the 08 at 03:00 until the 09 at 00:00 UTC


080308Z 0803/0824 14005KT 6SM BR BKN035
FM080500 15004KT 3SM BR BKN015
TEMPO 0808/0812 1/2SM FG BKN004
FM081500 18007KT P6SM BKN015
FM081900 16006KT P6SM SCT030



MET'MAP, your aeronautical weather chart ! - Copyright ORBIFLY December 2007 - Disclaimer

ORBIFLY MET'MAP TEAM :

Programming & Development : Alexandra Zaïnal
Concept & original design : Baudouin d'Aumeries
Assistance for programming : Marc-Olivier Méhu
Technical & hardware support : Manuel Goepfert

Contact : metmap@orbifly.com




SOURCES & CREDITS :

   NOAA       Earth
Advisory